createdAt,value
2023-04-02T00:01:26.814Z,42.88
2023-04-02T00:04:03.495Z,42.69
2023-04-02T00:06:33.354Z,42.66
2023-04-02T00:09:20.050Z,42.69
2023-04-02T00:11:54.637Z,42.86
2023-04-02T00:14:28.798Z,43.10
2023-04-02T00:16:56.409Z,42.68
2023-04-02T00:19:36.323Z,42.93
2023-04-02T00:22:06.455Z,42.63
2023-04-02T00:24:33.662Z,42.67
2023-04-02T00:27:00.499Z,42.66
2023-04-02T00:29:27.127Z,42.83
2023-04-02T00:31:54.389Z,42.64
2023-04-02T00:34:32.537Z,42.71
2023-04-02T00:36:59.226Z,42.58
2023-04-02T00:39:27.714Z,42.60
2023-04-02T00:42:04.776Z,42.78
2023-04-02T00:44:32.965Z,42.68
2023-04-02T00:47:03.333Z,42.70
2023-04-02T00:49:34.812Z,42.79
2023-04-02T00:52:06.761Z,42.63
2023-04-02T00:54:37.801Z,42.58
2023-04-02T00:57:04.526Z,42.69
2023-04-02T00:59:36.753Z,42.51
2023-04-02T01:02:17.380Z,42.60
2023-04-02T01:04:54.395Z,42.58
2023-04-02T01:07:27.991Z,42.75
2023-04-02T01:09:57.466Z,42.79
2023-04-02T01:12:30.152Z,42.62
2023-04-02T01:15:09.758Z,42.60
2023-04-02T01:17:48.945Z,42.55
2023-04-02T01:20:34.332Z,42.55
2023-04-02T01:23:00.714Z,42.53
2023-04-02T01:25:32.464Z,42.44
2023-04-02T01:28:29.526Z,42.45
2023-04-02T01:30:57.350Z,42.47
2023-04-02T01:33:25.021Z,42.66
2023-04-02T01:36:11.715Z,42.57
2023-04-02T01:38:45.977Z,42.49
2023-04-02T01:41:18.174Z,42.66
2023-04-02T01:43:54.404Z,42.54
2023-04-02T01:46:31.997Z,42.46
2023-04-02T01:49:00.888Z,42.44
2023-04-02T01:51:29.573Z,42.58
2023-04-02T01:53:56.678Z,42.64
2023-04-02T01:56:23.233Z,42.58
2023-04-02T01:58:50.023Z,42.68
2023-04-02T02:01:19.563Z,42.53
2023-04-02T02:03:46.238Z,42.60
2023-04-02T02:06:14.256Z,42.68
2023-04-02T02:08:46.789Z,42.63
2023-04-02T02:11:18.003Z,42.47
2023-04-02T02:13:48.382Z,42.39
2023-04-02T02:16:17.837Z,42.51
2023-04-02T02:18:46.759Z,42.33
2023-04-02T02:21:18.269Z,42.64
2023-04-02T02:23:44.795Z,42.62
2023-04-02T02:26:13.149Z,42.57
2023-04-02T02:28:42.563Z,42.37
2023-04-02T02:31:17.862Z,42.57
2023-04-02T02:33:50.340Z,42.59
2023-04-02T02:36:19.665Z,42.56
2023-04-02T02:38:49.346Z,42.60
2023-04-02T02:41:24.744Z,42.23
2023-04-02T02:43:56.285Z,42.59
2023-04-02T02:46:23.723Z,42.35
2023-04-02T02:48:52.065Z,42.55
2023-04-02T02:51:22.396Z,42.45
2023-04-02T02:53:51.944Z,42.27
2023-04-02T02:56:19.144Z,42.44
2023-04-02T02:58:45.765Z,42.26
2023-04-02T03:01:12.349Z,42.51
2023-04-02T03:03:39.041Z,42.50
2023-04-02T03:06:07.493Z,42.22
2023-04-02T03:08:37.069Z,42.54
2023-04-02T03:11:07.913Z,42.42
2023-04-02T03:13:35.634Z,42.41
2023-04-02T03:16:22.952Z,42.30
2023-04-02T03:18:49.372Z,42.39
2023-04-02T03:21:31.453Z,42.58
2023-04-02T03:24:01.017Z,42.39
2023-04-02T03:26:32.617Z,42.33
2023-04-02T03:29:02.050Z,42.32
2023-04-02T03:31:34.384Z,42.45
2023-04-02T03:34:30.195Z,42.30
2023-04-02T03:36:57.792Z,42.27
2023-04-02T03:39:32.169Z,42.30
2023-04-02T03:42:13.842Z,42.45
2023-04-02T03:44:49.788Z,42.50
2023-04-02T03:47:28.420Z,42.30
2023-04-02T03:50:01.571Z,42.34
2023-04-02T03:52:28.865Z,42.35
2023-04-02T03:54:56.987Z,42.42
2023-04-02T03:57:31.753Z,42.34
2023-04-02T04:00:24.505Z,42.36
2023-04-02T04:02:52.912Z,42.29
2023-04-02T04:05:39.603Z,42.17
2023-04-02T04:08:13.963Z,42.29
2023-04-02T04:10:40.802Z,42.27
2023-04-02T04:13:11.313Z,42.61
2023-04-02T04:15:47.312Z,42.29
2023-04-02T04:18:24.244Z,42.34
2023-04-02T04:20:56.689Z,42.24
2023-04-02T04:23:32.403Z,42.47
2023-04-02T04:26:09.491Z,42.37
2023-04-02T04:28:47.290Z,42.36
2023-04-02T04:31:25.340Z,42.42
2023-04-02T04:34:03.066Z,42.29
2023-04-02T04:36:32.230Z,42.50
2023-04-02T04:39:00.543Z,42.23
2023-04-02T04:41:29.617Z,42.31
2023-04-02T04:43:56.006Z,42.41
2023-04-02T04:46:30.974Z,42.46
2023-04-02T04:49:35.916Z,42.30
2023-04-02T04:52:14.569Z,42.41
2023-04-02T04:54:41.160Z,42.43
2023-04-02T04:57:18.711Z,42.35
2023-04-02T04:59:50.198Z,42.34
2023-04-02T05:02:18.653Z,42.48
2023-04-02T05:04:49.286Z,42.47
2023-04-02T05:07:36.046Z,42.27
2023-04-02T05:10:17.214Z,42.33
2023-04-02T05:12:46.392Z,42.23
2023-04-02T05:15:16.277Z,42.44
2023-04-02T05:17:56.078Z,42.19
2023-04-02T05:20:25.665Z,42.32
2023-04-02T05:22:58.067Z,42.42
2023-04-02T05:25:28.757Z,42.42
2023-04-02T05:28:04.512Z,42.32
2023-04-02T05:30:49.533Z,42.22
2023-04-02T05:33:22.462Z,42.12
2023-04-02T05:35:51.291Z,42.30
2023-04-02T05:38:20.806Z,42.37
2023-04-02T05:40:48.206Z,42.18
2023-04-02T05:43:17.234Z,42.30
2023-04-02T05:45:45.324Z,42.31
2023-04-02T05:48:20.013Z,42.14
2023-04-02T05:50:49.580Z,42.02
2023-04-02T05:53:19.976Z,42.02
2023-04-02T05:55:52.485Z,41.94
2023-04-02T06:01:02.261Z,42.11
2023-04-02T06:03:37.608Z,41.97
2023-04-02T06:06:08.113Z,42.00
2023-04-02T06:08:39.591Z,42.00
2023-04-02T06:11:09.888Z,41.91
2023-04-02T06:13:36.452Z,41.69
2023-04-02T06:16:03.467Z,41.69
2023-04-02T06:18:34.731Z,41.63
2023-04-02T06:21:01.289Z,41.75
2023-04-02T06:23:36.812Z,41.82
2023-04-02T06:26:09.991Z,41.63
2023-04-02T06:28:40.862Z,41.55
2023-04-02T06:31:15.756Z,41.62
2023-04-02T06:33:43.237Z,41.62
2023-04-02T06:36:10.212Z,41.54
2023-04-02T06:38:37.844Z,41.78
2023-04-02T06:41:07.774Z,41.49
2023-04-02T06:43:55.948Z,41.74
2023-04-02T06:46:28.155Z,41.68
2023-04-02T06:48:58.655Z,41.69
2023-04-02T06:51:26.275Z,41.69
2023-04-02T06:53:53.389Z,41.71
2023-04-02T06:56:25.582Z,41.69
2023-04-02T06:58:52.021Z,41.58
2023-04-02T07:01:22.315Z,41.49
2023-04-02T07:03:48.798Z,41.48
2023-04-02T07:06:16.652Z,41.51
2023-04-02T07:08:43.151Z,41.61
2023-04-02T07:11:18.712Z,41.30
2023-04-02T07:13:46.730Z,41.35
2023-04-02T07:16:18.346Z,41.68
2023-04-02T07:18:45.615Z,41.58
2023-04-02T07:21:12.044Z,41.32
2023-04-02T07:23:38.478Z,41.34
2023-04-02T07:26:05.672Z,41.32
2023-04-02T07:28:32.152Z,41.28
2023-04-02T07:30:58.631Z,41.38
2023-04-02T07:33:27.240Z,41.42
2023-04-02T07:35:54.562Z,41.52
2023-04-02T07:38:21.268Z,41.63
2023-04-02T07:40:47.830Z,41.71
2023-04-02T07:43:15.429Z,41.52
2023-04-02T07:45:41.958Z,41.88
2023-04-02T07:48:10.491Z,41.79
2023-04-02T07:50:37.331Z,41.86
2023-04-02T07:53:04.198Z,41.56
2023-04-02T07:55:30.724Z,41.59
2023-04-02T07:57:58.493Z,41.52
2023-04-02T08:00:26.736Z,41.44
2023-04-02T08:02:53.404Z,41.80
2023-04-02T08:05:19.863Z,41.62
2023-04-02T08:07:56.773Z,41.66
2023-04-02T08:10:23.578Z,41.70
2023-04-02T08:12:50.185Z,41.49
2023-04-02T08:15:17.046Z,41.45
2023-04-02T08:17:43.530Z,41.74
2023-04-02T08:20:14.841Z,41.79
2023-04-02T08:22:41.314Z,41.50
2023-04-02T08:25:07.963Z,41.70
2023-04-02T08:27:34.383Z,41.74
2023-04-02T08:30:00.809Z,41.48
2023-04-02T08:32:29.060Z,41.54
2023-04-02T08:34:55.594Z,41.44
2023-04-02T08:37:22.058Z,41.83
2023-04-02T08:39:48.537Z,41.79
2023-04-02T08:42:24.073Z,41.49
2023-04-02T08:44:50.534Z,41.51
2023-04-02T08:47:19.110Z,41.79
2023-04-02T08:49:54.424Z,41.54
2023-04-02T08:52:26.623Z,41.52
2023-04-02T08:54:56.099Z,41.43
2023-04-02T08:57:55.182Z,41.38
2023-04-02T09:00:21.971Z,41.31
2023-04-02T09:03:08.675Z,41.27
2023-04-02T09:05:37.754Z,41.32
2023-04-02T09:08:07.901Z,41.37
2023-04-02T09:10:39.764Z,41.56
2023-04-02T09:13:13.650Z,41.46
2023-04-02T09:15:40.023Z,41.33
2023-04-02T09:18:24.708Z,41.49
2023-04-02T09:20:51.170Z,41.21
2023-04-02T09:23:22.430Z,41.31
2023-04-02T09:26:02.929Z,41.04
2023-04-02T09:28:30.478Z,41.09
2023-04-02T09:31:02.021Z,41.00
2023-04-02T09:33:41.434Z,41.09
2023-04-02T09:36:17.192Z,41.09
2023-04-02T09:38:57.044Z,41.29
2023-04-02T09:41:27.197Z,41.28
2023-04-02T09:44:11.978Z,41.12
2023-04-02T09:46:47.884Z,41.33
2023-04-02T09:49:16.150Z,41.23
2023-04-02T09:51:42.590Z,41.25
2023-04-02T09:54:13.788Z,41.33
2023-04-02T09:56:41.113Z,41.17
2023-04-02T09:59:17.926Z,41.06
2023-04-02T10:01:45.870Z,41.27
2023-04-02T10:04:31.441Z,41.10
2023-04-02T10:06:59.141Z,41.29
2023-04-02T10:09:30.694Z,41.18
2023-04-02T10:11:57.402Z,41.26
2023-04-02T10:14:44.988Z,41.06
2023-04-02T10:17:20.755Z,41.20
2023-04-02T10:19:50.479Z,41.09
2023-04-02T10:22:17.787Z,41.43
2023-04-02T10:24:44.342Z,41.18
2023-04-02T10:27:29.807Z,41.38
2023-04-02T10:30:05.568Z,41.23
2023-04-02T10:32:45.512Z,41.15
2023-04-02T10:35:30.929Z,41.23
2023-04-02T10:38:03.347Z,41.08
2023-04-02T10:40:35.660Z,41.33
2023-04-02T10:43:02.123Z,41.32
2023-04-02T10:45:37.514Z,41.29
2023-04-02T10:48:11.297Z,41.14
2023-04-02T10:50:49.647Z,41.24
2023-04-02T10:53:17.900Z,41.23
2023-04-02T10:55:45.774Z,41.15
2023-04-02T10:58:19.419Z,41.13
2023-04-02T11:00:47.316Z,41.31
2023-04-02T11:03:16.607Z,41.26
2023-04-02T11:05:44.175Z,40.95
2023-04-02T11:08:17.039Z,41.19
2023-04-02T11:10:46.758Z,40.93
2023-04-02T11:13:16.842Z,41.10
2023-04-02T11:15:43.414Z,40.92
2023-04-02T11:18:23.691Z,40.86
2023-04-02T11:20:50.133Z,41.19
2023-04-02T11:23:20.309Z,41.11
2023-04-02T11:25:47.413Z,41.15
2023-04-02T11:28:19.004Z,41.19
2023-04-02T11:30:48.001Z,41.10
2023-04-02T11:33:37.033Z,41.26
2023-04-02T11:36:04.124Z,41.25
2023-04-02T11:38:52.341Z,41.28
2023-04-02T11:41:37.687Z,41.14
2023-04-02T11:44:04.706Z,41.06
2023-04-02T11:46:41.530Z,40.82
2023-04-02T11:49:33.422Z,41.30
2023-04-02T11:52:09.322Z,41.10
2023-04-02T11:54:38.950Z,41.41
2023-04-02T11:57:28.144Z,41.04
2023-04-02T12:00:16.898Z,41.02
2023-04-02T12:02:56.733Z,41.25
2023-04-02T12:05:27.441Z,41.27
2023-04-02T12:08:13.633Z,41.13
2023-04-02T12:10:46.110Z,41.07
2023-04-02T12:13:38.814Z,41.04
2023-04-02T12:16:06.665Z,41.00
2023-04-02T12:18:33.395Z,41.00
2023-04-02T12:20:59.859Z,40.96
2023-04-02T12:23:26.534Z,40.88
2023-04-02T12:25:55.274Z,40.94
2023-04-02T12:28:22.423Z,41.20
2023-04-02T12:30:50.616Z,40.82
2023-04-02T12:33:20.050Z,40.72
2023-04-02T12:35:47.283Z,40.89
2023-04-02T12:38:19.804Z,41.03
2023-04-02T12:40:56.854Z,41.18
2023-04-02T12:43:24.076Z,41.18
2023-04-02T12:46:07.199Z,41.15
2023-04-02T12:48:34.781Z,41.20
2023-04-02T12:51:02.253Z,41.15
2023-04-02T12:53:31.297Z,41.09
2023-04-02T12:55:57.885Z,41.15
2023-04-02T12:58:25.970Z,41.04
2023-04-02T13:00:52.430Z,41.23
2023-04-02T13:03:20.441Z,41.26
2023-04-02T13:05:50.714Z,40.90
2023-04-02T13:08:28.063Z,41.07
2023-04-02T13:10:56.669Z,41.29
2023-04-02T13:13:49.562Z,41.08
2023-04-02T13:16:19.057Z,41.34
2023-04-02T13:18:47.081Z,41.19
2023-04-02T13:21:16.463Z,41.35
2023-04-02T13:23:44.004Z,41.12
2023-04-02T13:26:13.101Z,41.33
2023-04-02T13:28:39.578Z,41.35
2023-04-02T13:31:06.264Z,41.28
2023-04-02T13:33:32.722Z,41.18
2023-04-02T13:35:59.394Z,41.39
2023-04-02T13:38:26.240Z,41.37
2023-04-02T13:40:52.620Z,41.23
2023-04-02T13:43:19.925Z,41.37
2023-04-02T13:45:49.162Z,41.38
2023-04-02T13:48:15.988Z,41.21
2023-04-02T13:50:42.606Z,41.35
2023-04-02T13:53:13.301Z,41.30
2023-04-02T13:55:41.499Z,41.30
2023-04-02T13:58:08.250Z,41.52
2023-04-02T14:00:37.609Z,41.46
2023-04-02T14:03:09.987Z,41.46
2023-04-02T14:05:39.411Z,41.13
2023-04-02T14:08:18.947Z,41.26
2023-04-02T14:11:07.994Z,41.35
2023-04-02T14:13:34.325Z,41.33
2023-04-02T14:16:07.222Z,41.40
2023-04-02T14:18:48.408Z,41.60
2023-04-02T14:21:21.250Z,41.39
2023-04-02T14:23:47.598Z,41.33
2023-04-02T14:26:29.210Z,41.36
2023-04-02T14:29:18.624Z,41.56
2023-04-02T14:31:51.326Z,41.50
2023-04-02T14:34:20.726Z,41.54
2023-04-02T14:36:59.487Z,41.41
2023-04-02T14:39:32.033Z,41.42
2023-04-02T14:42:01.937Z,41.59
2023-04-02T14:44:31.604Z,41.35
2023-04-02T14:47:02.664Z,41.40
2023-04-02T14:49:32.494Z,41.66
2023-04-02T14:52:03.920Z,41.66
2023-04-02T14:54:39.908Z,41.63
2023-04-02T14:57:11.782Z,41.58
2023-04-02T14:59:50.747Z,41.58
2023-04-02T15:02:22.977Z,41.60
2023-04-02T15:05:01.618Z,41.49
2023-04-02T15:07:37.265Z,41.60
2023-04-02T15:10:19.141Z,41.42
2023-04-02T15:12:46.597Z,41.46
2023-04-02T15:15:39.273Z,41.56
2023-04-02T15:18:12.848Z,41.75
2023-04-02T15:20:43.202Z,41.63
2023-04-02T15:23:18.676Z,41.76
2023-04-02T15:25:45.612Z,41.54
2023-04-02T15:28:24.310Z,41.68
2023-04-02T15:30:55.004Z,41.79
2023-04-02T15:33:27.454Z,41.70
2023-04-02T15:36:04.121Z,41.77
2023-04-02T15:38:33.694Z,41.66
2023-04-02T15:41:23.620Z,41.74
2023-04-02T15:44:10.140Z,41.53
2023-04-02T15:46:58.562Z,41.59
2023-04-02T15:49:37.395Z,41.61
2023-04-02T15:52:04.306Z,41.54
2023-04-02T15:54:36.852Z,41.66
2023-04-02T15:57:22.269Z,41.63
2023-04-02T15:59:57.753Z,41.96
2023-04-02T16:02:27.185Z,41.59
2023-04-02T16:04:56.409Z,41.65
2023-04-02T16:07:24.959Z,41.73
2023-04-02T16:10:06.942Z,41.87
2023-04-02T16:12:34.721Z,41.86
2023-04-02T16:15:18.061Z,41.80
2023-04-02T16:17:50.725Z,41.70
2023-04-02T16:20:24.729Z,41.79
2023-04-02T16:23:01.510Z,39.44
2023-04-02T16:25:31.310Z,36.35
2023-04-02T16:28:03.843Z,35.40
2023-04-02T16:30:39.417Z,34.92
2023-04-02T16:33:08.711Z,34.59
2023-04-02T16:35:43.524Z,34.33
2023-04-02T16:38:19.596Z,34.78
2023-04-02T16:41:07.116Z,34.98
2023-04-02T16:43:41.209Z,35.12
2023-04-02T16:46:35.897Z,35.42
2023-04-02T16:49:23.608Z,35.71
2023-04-02T16:51:58.806Z,35.57
2023-04-02T16:54:41.331Z,35.69
2023-04-02T16:57:26.598Z,35.80
2023-04-02T16:59:55.961Z,36.18
2023-04-02T17:02:37.744Z,36.26
2023-04-02T17:05:10.102Z,36.38
2023-04-02T17:07:42.784Z,36.43
2023-04-02T17:10:24.865Z,36.69
2023-04-02T17:12:56.926Z,36.69
2023-04-02T17:15:28.375Z,36.63
2023-04-02T17:17:58.365Z,36.61
2023-04-02T17:20:26.043Z,36.58
2023-04-02T17:22:55.609Z,36.86
2023-04-02T17:25:27.009Z,36.73
2023-04-02T17:27:54.513Z,36.79
2023-04-02T17:30:32.431Z,36.64
2023-04-02T17:32:58.889Z,36.83
2023-04-02T17:35:28.463Z,36.75
2023-04-02T17:37:55.031Z,36.57
2023-04-02T17:40:47.988Z,36.64
2023-04-02T17:43:40.790Z,36.70
2023-04-02T17:46:22.654Z,36.78
2023-04-02T17:48:51.514Z,36.96
2023-04-02T17:51:30.003Z,36.82
2023-04-02T17:54:15.008Z,36.99
2023-04-02T17:56:44.422Z,36.88
2023-04-02T17:59:17.323Z,37.15
2023-04-02T18:01:46.814Z,37.06
2023-04-02T18:04:21.829Z,36.93
2023-04-02T18:07:07.395Z,36.86
2023-04-02T18:09:44.585Z,36.87
2023-04-02T18:12:31.992Z,36.87
2023-04-02T18:15:05.537Z,36.86
2023-04-02T18:17:41.137Z,37.06
2023-04-02T18:20:22.802Z,36.86
2023-04-02T18:22:52.282Z,36.89
2023-04-02T18:25:30.892Z,36.80
2023-04-02T18:28:00.406Z,36.74
2023-04-02T18:30:31.094Z,36.86
2023-04-02T18:33:03.795Z,36.85
2023-04-02T18:35:48.929Z,36.60
2023-04-02T18:38:18.151Z,36.71
2023-04-02T18:40:56.873Z,36.75
2023-04-02T18:43:32.518Z,36.89
2023-04-02T18:46:06.497Z,36.74
2023-04-02T18:48:32.976Z,36.66
2023-04-02T18:51:00.423Z,36.60
2023-04-02T18:53:29.343Z,36.46
2023-04-02T18:56:07.408Z,36.51
2023-04-02T18:58:45.543Z,36.44
2023-04-02T19:01:14.382Z,36.52
2023-04-02T19:03:46.635Z,36.28
2023-04-02T19:06:19.374Z,36.14
2023-04-02T19:08:48.489Z,36.19
2023-04-02T19:11:20.236Z,36.13
2023-04-02T19:13:48.359Z,36.15
2023-04-02T19:16:14.794Z,36.21
2023-04-02T19:18:41.498Z,36.25
2023-04-02T19:21:15.624Z,36.35
2023-04-02T19:23:42.162Z,36.27
2023-04-02T19:26:15.609Z,36.06
2023-04-02T19:28:42.011Z,36.09
2023-04-02T19:31:34.854Z,36.06
2023-04-02T19:34:19.851Z,36.04
2023-04-02T19:36:55.609Z,36.03
2023-04-02T19:39:34.058Z,35.96
2023-04-02T19:42:06.539Z,36.09
2023-04-02T19:44:32.941Z,36.03
2023-04-02T19:46:59.441Z,36.08
2023-04-02T19:49:30.415Z,35.85
2023-04-02T19:51:57.080Z,35.89
2023-04-02T19:54:23.438Z,35.81
2023-04-02T19:56:50.169Z,35.79
2023-04-02T19:59:18.731Z,35.70
2023-04-02T20:01:45.737Z,35.79
2023-04-02T20:04:12.315Z,35.75
2023-04-02T20:06:38.855Z,35.85
2023-04-02T20:09:05.339Z,35.78
2023-04-02T20:11:31.766Z,35.79
2023-04-02T20:13:58.205Z,35.62
2023-04-02T20:16:24.788Z,35.56
2023-04-02T20:18:51.601Z,35.61
2023-04-02T20:21:18.128Z,35.66
2023-04-02T20:23:44.795Z,35.67
2023-04-02T20:26:12.668Z,35.74
2023-04-02T20:28:39.589Z,35.69
2023-04-02T20:31:16.152Z,35.76
2023-04-02T20:33:44.240Z,36.86
2023-04-02T20:36:12.637Z,37.09
2023-04-02T20:38:39.670Z,37.24
2023-04-02T20:41:07.258Z,37.18
2023-04-02T20:43:33.838Z,37.06
2023-04-02T20:46:01.801Z,37.08
2023-04-02T20:48:31.055Z,37.09
2023-04-02T20:50:57.921Z,37.01
2023-04-02T20:53:24.337Z,36.95
2023-04-02T20:55:50.734Z,37.04
2023-04-02T20:58:18.271Z,36.91
2023-04-02T21:00:45.728Z,36.86
2023-04-02T21:03:12.241Z,36.64
2023-04-02T21:05:45.147Z,36.77
2023-04-02T21:08:12.142Z,36.52
2023-04-02T21:10:38.928Z,36.55
2023-04-02T21:13:05.898Z,36.57
2023-04-02T21:15:32.889Z,36.62
2023-04-02T21:17:59.328Z,36.71
2023-04-02T21:20:27.001Z,36.61
2023-04-02T21:22:53.630Z,36.41
2023-04-02T21:25:20.218Z,36.45
2023-04-02T21:27:46.649Z,36.35
2023-04-02T21:30:13.211Z,36.42
2023-04-02T21:32:39.682Z,36.43
2023-04-02T21:35:07.609Z,36.40
2023-04-02T21:37:34.013Z,36.30
2023-04-02T21:40:00.549Z,36.23
2023-04-02T21:42:27.852Z,36.14
2023-04-02T21:44:55.949Z,36.21
2023-04-02T21:47:23.495Z,36.20
2023-04-02T21:49:49.978Z,36.15
2023-04-02T21:52:16.513Z,36.40
2023-04-02T21:54:42.942Z,36.38
2023-04-02T21:57:09.427Z,36.27
2023-04-02T21:59:36.002Z,36.39
2023-04-02T22:02:02.442Z,36.89
2023-04-02T22:04:30.649Z,37.00
2023-04-02T22:06:57.578Z,36.83
2023-04-02T22:09:25.719Z,36.85
2023-04-02T22:11:59.004Z,36.57
2023-04-02T22:14:25.998Z,36.66
2023-04-02T22:16:52.471Z,36.54
2023-04-02T22:19:19.012Z,36.46
2023-04-02T22:21:46.192Z,36.45
2023-04-02T22:24:14.479Z,36.43
2023-04-02T22:26:41.434Z,36.25
2023-04-02T22:29:08.102Z,36.23
2023-04-02T22:31:35.313Z,36.20
2023-04-02T22:34:02.472Z,36.20
2023-04-02T22:36:29.066Z,36.39
2023-04-02T22:38:56.161Z,36.24
2023-04-02T22:41:25.694Z,36.25
2023-04-02T22:43:52.426Z,36.38
2023-04-02T22:46:19.443Z,36.34
2023-04-02T22:48:46.469Z,36.33
2023-04-02T22:51:13.817Z,36.40
2023-04-02T22:53:40.682Z,36.34
2023-04-02T22:56:12.110Z,36.35
2023-04-02T22:58:38.829Z,36.31
2023-04-02T23:01:10.254Z,36.31
2023-04-02T23:03:36.737Z,36.29
2023-04-02T23:06:07.799Z,36.09
2023-04-02T23:08:37.836Z,36.16
2023-04-02T23:11:06.258Z,36.29
2023-04-02T23:13:33.430Z,36.26
2023-04-02T23:16:04.326Z,36.14
2023-04-02T23:18:34.694Z,36.14
2023-04-02T23:21:01.194Z,36.14
2023-04-02T23:23:28.013Z,36.21
2023-04-02T23:26:04.090Z,36.02
2023-04-02T23:28:30.807Z,36.20
2023-04-02T23:30:57.241Z,36.29
2023-04-02T23:33:23.708Z,36.28
2023-04-02T23:35:50.272Z,36.24
2023-04-02T23:38:16.761Z,36.13
2023-04-02T23:40:43.180Z,36.25
2023-04-02T23:43:09.659Z,36.27
2023-04-02T23:45:36.333Z,36.27
2023-04-02T23:48:02.813Z,36.41
2023-04-02T23:50:29.335Z,36.35
2023-04-02T23:52:55.771Z,36.38
2023-04-02T23:55:22.174Z,36.31
2023-04-02T23:57:48.582Z,36.19
